KOKK

Kokomo Municipal Airport

Kokomo, Indiana, USA
METAR KOKK 181306Z AUTO 26004KT 2 1/2SM BR OVC009 M01/M01 A3012 RMK AO2 CIG 006V011 FZRANO
Observed Flight Rules
Jan-18 @ 13:06 UTC (41 minutes ago) Instrument Flight Rules
Wind Visibility Clouds Conditions
260° at 4 knots 2 1/2 miles
  • Overcast at 900' AGL
  • Mist
Temperatures Readings
Current -1°C / 30°F
Dewpoint -1°C / 30°F
Humidity 100%
Altimeter 30.12" Hg
Pressure 1020.02 hPa
Elevation 253
METAR KOKK 181306Z AUTO 26004KT 2 1/2SM BR OVC009 M01/M01 A3012 RMK AO2 CIG 006V011 FZRANO
Observed Flight Rules
Jan-18 @ 13:06 UTC
(41 minutes ago)
IFR
Wind Visibility
260° at 4 knots 2 1/2 miles
Clouds
  • Overcast at 900' AGL
Conditions
  • Mist
Temperature Dewpoint
-1°C / 30°F -1°C / 30°F
Humidity Altimeter Pressure
100% 30.12" Hg 1020.02 hPa